LFKC/CLY METAR and TAF weather

Enter ICAO airport designator
Station Type Date Time Source
LFKC METAR 2019/10/23 12:30 UTC NOAA

LFKC 231230Z AUTO 13001KT CAVOK 29/12 Q1010 TEMPO SHRA SCT026TCU


Station Type Date Time Source
LFKC Decoded METAR 2019/10/23 12:30 UTC NOAA

Calvi, France (LFKC) 42-32N 008-48E 58M
Oct 23, 2019 - 08:30 AM EDT / 2019.10.23 1230 UTC
Wind: from the SE (130 degrees) at 1 MPH (1 KT):0
Visibility: greater than 7 mile(s):0
Weather: Towering cumulus clouds observed
Temperature: 84 F (29 C)
Dew Point: 53 F (12 C)
Relative Humidity: 34%
Pressure (altimeter): 29.83 in. Hg (1010 hPa)
ob: LFKC 231230Z AUTO 13001KT CAVOK 29/12 Q1010 TEMPO SHRA SCT026TCU
cycle: 12

Station Type Date Time Source
LFKC TAF 2019/10/23 09:23 UTC NOAA

TAF LFKC 230800Z 2309/2409 34005KT 9999 NSC TX27/2312Z TN16/2403Z
TEMPO 2309/2314 SHRA SCT026TCU
BECMG 2317/2320 20004KT
BECMG 2321/2324 4000 TSRA SCT020CB BKN033

Example: see airport list